Startpagina
METAR-TAF:

METAR-TAF

Vliegvelden :

Aeropuerto Benito Salas

Neiva, Colombia

breedte: 02-58N, lengte: 075-18W, hoogte: 439 m

Actueel weer

Dit bericht is 29 minuten geleden gemaakt, om 11:00 UTC
Wind 2 kt uit variabele richting
Temperatuur 22°C
Vochtigheid 83%
Druk 1014 hPa
Zicht 10 km of meer
Weinig wolken op 2700 ft
Gebroken wolken op 23000 ft

METAR: SKNV 271100Z VRB02KT 9999 FEW027 BKN230 22/19 A2993

Tijdstip: 06:29 (11:29 UTC)


TAF: ontbreekt

Waarnemingen en weersverwachtingen van meer dan 4000 vliegvelden (METAR en TAF).

De beschikbare stations zijn de gele en rode punten op de kaart.

Ga met uw muis naar het station om de naam te zien.

Klik dan om waarnemingen en weersverwachtingen te zien.

kaart wijzigen: klik op de groene knoppen met een zwart kruis om in te zoomen, op de groene knop met een streepje om uit te zoomen of op de groene pijlen voor aangrenzende kaarten.


METAR-TAF: